RJNF(METAR)
02/27 16:00
RJNF 270700Z 03015KT 9999 SCT040 06/M03 Q1024 RMK A3026=
戻る
トップページへ戻る
IMOC Co,.Ltd.